createdAt,value
2019-04-01T00:14:42.388Z,2.31
2019-04-01T00:34:42.039Z,2.55
2019-04-01T00:54:51.632Z,1.66
2019-04-01T01:15:01.195Z,1.55
2019-04-01T01:35:10.885Z,1.32
2019-04-01T01:55:22.612Z,1.26
2019-04-01T02:15:22.060Z,1.27
2019-04-01T02:35:32.495Z,1.26
2019-04-01T02:55:35.305Z,1.38
2019-04-01T03:15:34.756Z,1.20
2019-04-01T03:35:44.543Z,1.34
2019-04-01T03:55:58.588Z,1.26
2019-04-01T04:16:00.519Z,1.30
2019-04-01T04:35:59.982Z,1.43
2019-04-01T04:56:09.403Z,1.29
2019-04-01T05:16:18.951Z,1.60
2019-04-01T05:36:28.517Z,2.93
2019-04-01T05:56:37.951Z,1.38
2019-04-01T06:16:47.428Z,1.40
2019-04-01T06:36:56.841Z,1.41
2019-04-01T06:57:08.789Z,1.46
2019-04-01T07:17:08.328Z,1.41
2019-04-01T07:37:17.871Z,1.47
2019-04-01T07:57:27.290Z,1.46
2019-04-01T08:17:39.255Z,1.31
2019-04-01T08:37:40.563Z,1.33
2019-04-01T08:57:47.894Z,1.29
2019-04-01T09:17:57.430Z,0.94
2019-04-01T09:38:06.895Z,0.94
2019-04-01T09:58:16.498Z,1.15
2019-04-01T10:18:25.884Z,0.85
2019-04-01T10:38:37.585Z,1.02
2019-04-01T10:58:37.110Z,1.05
2019-04-01T11:18:48.848Z,0.68
2019-04-01T11:38:55.841Z,0.87
2019-04-01T11:58:56.838Z,0.61
2019-04-01T12:19:06.665Z,2.19
2019-04-01T12:39:06.090Z,0.92
2019-04-01T12:59:15.574Z,0.78
2019-04-01T13:19:25.107Z,1.37
2019-04-01T13:39:34.660Z,1.02
2019-04-01T13:59:49.639Z,1.23
2019-04-01T14:19:53.468Z,0.83
2019-04-01T14:40:03.215Z,1.05
2019-04-01T15:00:13.011Z,0.79
2019-04-01T15:20:26.032Z,2.00
2019-04-01T15:40:23.541Z,1.25
2019-04-01T16:00:35.588Z,1.03
2019-04-01T16:20:35.455Z,0.87
2019-04-01T16:41:43.048Z,1.05
2019-04-01T17:00:54.923Z,1.24
2019-04-01T17:20:53.718Z,3.28
2019-04-01T17:40:53.348Z,3.61
2019-04-01T18:01:03.179Z,4.78
2019-04-01T18:21:12.955Z,3.38
2019-04-01T18:41:24.715Z,3.35
2019-04-01T19:01:26.740Z,3.31
2019-04-01T19:21:26.292Z,3.15
2019-04-01T19:41:37.634Z,4.93
2019-04-01T20:01:39.548Z,2.60
2019-04-01T20:21:38.995Z,2.64
2019-04-01T20:41:49.004Z,2.61
2019-04-01T21:01:57.646Z,3.17
2019-04-01T21:22:09.435Z,3.02
2019-04-01T21:42:11.923Z,2.98
2019-04-01T22:02:11.439Z,3.02
2019-04-01T22:22:20.878Z,2.95
2019-04-01T22:42:30.298Z,3.43
2019-04-01T23:02:39.701Z,2.84
2019-04-01T23:22:49.149Z,2.68
2019-04-01T23:42:58.591Z,2.11
